createdAt,value
2023-04-29T00:02:07.937Z,100580.94
2023-04-29T00:04:37.474Z,100581.03
2023-04-29T00:07:15.525Z,100580.63
2023-04-29T00:09:44.640Z,100577.88
2023-04-29T00:12:13.678Z,100559.94
2023-04-29T00:14:43.534Z,100537.28
2023-04-29T00:17:16.291Z,100569.06
2023-04-29T00:19:45.477Z,100584.34
2023-04-29T00:22:15.888Z,100558.66
2023-04-29T00:24:45.449Z,100574.97
2023-04-29T00:27:14.874Z,100577.34
2023-04-29T00:29:44.042Z,100552.56
2023-04-29T00:32:13.311Z,100566.06
2023-04-29T00:34:42.839Z,100504.59
2023-04-29T00:37:12.379Z,100575.16
2023-04-29T00:39:43.352Z,100564.72
2023-04-29T00:42:15.173Z,100562.75
2023-04-29T00:44:44.349Z,100575.81
2023-04-29T00:47:13.649Z,100566.06
2023-04-29T00:49:43.339Z,100522.69
2023-04-29T00:52:13.043Z,100571.72
2023-04-29T00:54:45.638Z,100574.56
2023-04-29T00:57:15.780Z,100565.38
2023-04-29T00:59:46.179Z,100571.28
2023-04-29T01:02:15.474Z,100564.53
2023-04-29T01:04:44.873Z,100578.09
2023-04-29T01:07:17.975Z,100575.34
2023-04-29T01:10:05.533Z,100574.91
2023-04-29T01:12:42.039Z,100525.13
2023-04-29T01:15:22.740Z,100569.94
2023-04-29T01:18:01.589Z,100515.91
2023-04-29T01:20:33.532Z,100576.63
2023-04-29T01:23:02.727Z,100587.38
2023-04-29T01:25:36.537Z,100596.25
2023-04-29T01:28:41.254Z,100587.72
2023-04-29T01:31:19.344Z,100578.75
2023-04-29T01:34:01.536Z,100592.81
2023-04-29T01:36:39.781Z,100604.50
2023-04-29T01:39:18.238Z,100601.38
2023-04-29T01:42:07.895Z,100560.09
2023-04-29T01:44:41.368Z,100544.50
2023-04-29T01:47:15.251Z,100600.44
2023-04-29T01:49:51.154Z,100599.97
2023-04-29T01:52:20.742Z,100616.94
2023-04-29T01:54:57.919Z,100615.38
2023-04-29T01:57:34.517Z,100618.03
2023-04-29T02:00:15.362Z,100619.28
2023-04-29T02:02:50.030Z,100621.69
2023-04-29T02:05:32.512Z,100633.72
2023-04-29T02:08:07.643Z,100627.00
2023-04-29T02:10:43.793Z,100593.31
2023-04-29T02:13:22.206Z,100626.44
2023-04-29T02:15:51.926Z,100624.03
2023-04-29T02:18:20.934Z,100547.91
2023-04-29T02:20:52.036Z,100609.78
2023-04-29T02:23:21.105Z,100590.97
2023-04-29T02:25:50.425Z,100617.59
2023-04-29T02:28:19.662Z,100621.75
2023-04-29T02:30:52.933Z,100604.81
2023-04-29T02:33:22.800Z,100616.94
2023-04-29T02:35:51.965Z,100623.78
2023-04-29T02:38:21.271Z,100612.25
2023-04-29T02:40:50.581Z,100614.84
2023-04-29T02:43:19.897Z,100636.09
2023-04-29T02:45:52.494Z,100586.59
2023-04-29T02:48:22.190Z,100620.97
2023-04-29T02:50:51.794Z,100640.13
2023-04-29T02:53:22.822Z,100649.44
2023-04-29T02:55:52.201Z,100650.25
2023-04-29T02:58:21.241Z,100653.97
2023-04-29T03:00:51.624Z,100624.41
2023-04-29T03:03:44.996Z,100658.09
2023-04-29T03:06:20.104Z,100658.16
2023-04-29T03:08:50.652Z,100607.38
2023-04-29T03:11:20.682Z,100653.44
2023-04-29T03:13:50.465Z,100669.59
2023-04-29T03:16:21.583Z,100644.63
2023-04-29T03:18:51.050Z,100669.81
2023-04-29T03:21:27.175Z,100679.50
2023-04-29T03:23:57.994Z,100648.06
2023-04-29T03:26:33.341Z,100678.41
2023-04-29T03:29:02.561Z,100662.66
2023-04-29T03:31:34.205Z,100686.22
2023-04-29T03:34:04.432Z,100682.78
2023-04-29T03:36:45.099Z,100664.25
2023-04-29T03:39:14.319Z,100636.53
2023-04-29T03:41:45.075Z,100709.69
2023-04-29T03:44:14.375Z,100688.69
2023-04-29T03:46:52.402Z,100686.53
2023-04-29T03:49:24.316Z,100710.28
2023-04-29T03:52:04.146Z,100634.28
2023-04-29T03:54:33.493Z,100708.91
2023-04-29T03:57:09.288Z,100702.22
2023-04-29T03:59:38.203Z,100709.84
2023-04-29T04:02:12.086Z,100717.13
2023-04-29T04:04:43.429Z,100712.88
2023-04-29T04:07:13.508Z,100711.00
2023-04-29T04:10:10.135Z,100703.28
2023-04-29T04:12:40.878Z,100718.22
2023-04-29T04:15:13.441Z,100566.06
2023-04-29T04:17:46.893Z,100651.19
2023-04-29T04:20:16.955Z,100713.00
2023-04-29T04:22:50.784Z,100714.75
2023-04-29T04:25:26.588Z,100731.72
2023-04-29T04:28:02.363Z,100708.38
2023-04-29T04:30:49.038Z,100675.38
2023-04-29T04:33:22.864Z,100688.69
2023-04-29T04:35:52.168Z,100728.41
2023-04-29T04:38:37.889Z,100701.72
2023-04-29T04:41:12.595Z,100612.84
2023-04-29T04:43:46.518Z,100713.69
2023-04-29T04:46:24.227Z,100719.94
2023-04-29T04:49:09.442Z,100732.66
2023-04-29T04:51:48.173Z,100713.38
2023-04-29T04:54:21.306Z,100718.22
2023-04-29T04:56:55.073Z,100696.38
2023-04-29T04:59:24.112Z,100710.25
2023-04-29T05:01:53.942Z,100675.59
2023-04-29T05:04:27.028Z,100721.94
2023-04-29T05:06:56.313Z,100705.03
2023-04-29T05:09:28.126Z,100720.13
2023-04-29T05:12:01.649Z,100703.06
2023-04-29T05:14:36.553Z,100709.13
2023-04-29T05:17:05.988Z,100705.88
2023-04-29T05:19:41.037Z,100721.78
2023-04-29T05:22:10.294Z,100692.59
2023-04-29T05:25:03.093Z,100651.56
2023-04-29T05:27:34.685Z,100714.66
2023-04-29T05:30:08.744Z,100722.78
2023-04-29T05:32:38.296Z,100733.63
2023-04-29T05:35:11.479Z,100699.69
2023-04-29T05:37:40.950Z,100726.88
2023-04-29T05:40:28.783Z,100727.97
2023-04-29T05:43:18.083Z,100728.41
2023-04-29T05:45:53.618Z,100701.44
2023-04-29T05:48:23.747Z,100729.66
2023-04-29T05:50:54.603Z,100714.09
2023-04-29T05:53:24.256Z,100713.69
2023-04-29T05:55:54.583Z,100728.81
2023-04-29T05:58:24.233Z,100727.50
2023-04-29T06:00:53.683Z,100711.06
2023-04-29T06:03:29.109Z,100729.84
2023-04-29T06:06:32.172Z,100722.53
2023-04-29T06:09:32.802Z,100698.81
2023-04-29T06:12:10.891Z,100666.63
2023-04-29T06:14:43.626Z,100645.56
2023-04-29T06:17:16.058Z,100690.47
2023-04-29T06:19:45.892Z,100710.88
2023-04-29T06:22:19.385Z,100727.06
2023-04-29T06:24:58.141Z,100732.69
2023-04-29T06:27:35.936Z,100728.44
2023-04-29T06:30:17.593Z,100728.72
2023-04-29T06:32:52.695Z,100667.56
2023-04-29T06:35:26.514Z,100724.47
2023-04-29T06:38:11.430Z,100728.59
2023-04-29T06:41:01.463Z,100707.44
2023-04-29T06:43:54.212Z,100726.44
2023-04-29T06:46:50.025Z,100729.66
2023-04-29T06:49:29.424Z,100716.59
2023-04-29T06:52:03.136Z,100698.25
2023-04-29T06:54:36.402Z,100732.94
2023-04-29T06:57:06.039Z,100710.78
2023-04-29T06:59:35.252Z,100712.69
2023-04-29T07:02:07.154Z,100739.97
2023-04-29T07:04:41.193Z,100747.84
2023-04-29T07:07:10.514Z,100725.00
2023-04-29T07:09:41.090Z,100727.44
2023-04-29T07:12:10.182Z,100735.72
2023-04-29T07:14:41.113Z,100727.19
2023-04-29T07:17:13.371Z,100725.47
2023-04-29T07:19:44.371Z,100740.38
2023-04-29T07:22:13.915Z,100733.59
2023-04-29T07:24:44.613Z,100697.56
2023-04-29T07:27:13.986Z,100717.69
2023-04-29T07:29:43.236Z,100619.84
2023-04-29T07:32:12.862Z,100741.38
2023-04-29T07:34:44.060Z,100733.34
2023-04-29T07:37:13.947Z,100733.84
2023-04-29T07:39:44.449Z,100731.91
2023-04-29T07:42:14.025Z,100704.28
2023-04-29T07:44:45.693Z,100728.00
2023-04-29T07:47:14.944Z,100739.06
2023-04-29T07:49:44.167Z,100678.41
2023-04-29T07:52:13.991Z,100719.97
2023-04-29T07:54:44.727Z,100722.69
2023-04-29T07:57:14.861Z,100726.06
2023-04-29T07:59:44.221Z,100701.25
2023-04-29T08:02:14.250Z,100710.50
2023-04-29T08:04:44.461Z,100702.50
2023-04-29T08:07:15.764Z,100721.66
2023-04-29T08:09:46.447Z,100718.06
2023-04-29T08:12:15.674Z,100698.03
2023-04-29T08:14:44.969Z,100716.31
2023-04-29T08:17:14.156Z,100692.53
2023-04-29T08:19:43.322Z,100714.97
2023-04-29T08:22:14.216Z,100709.53
2023-04-29T08:24:45.493Z,100680.97
2023-04-29T08:27:15.452Z,100645.25
2023-04-29T08:29:45.673Z,100703.97
2023-04-29T08:32:14.688Z,100710.56
2023-04-29T08:34:44.757Z,100699.63
2023-04-29T08:37:14.905Z,100705.84
2023-04-29T08:39:48.108Z,100703.94
2023-04-29T08:42:20.837Z,100710.97
2023-04-29T08:44:53.958Z,100707.28
2023-04-29T08:47:24.339Z,100700.94
2023-04-29T08:49:55.346Z,100698.13
2023-04-29T08:52:26.947Z,100707.22
2023-04-29T08:54:57.807Z,100710.72
2023-04-29T08:57:29.700Z,100716.25
2023-04-29T09:00:01.305Z,100716.25
2023-04-29T09:02:31.107Z,100709.38
2023-04-29T09:05:11.314Z,100685.94
2023-04-29T09:07:40.863Z,100678.00
2023-04-29T09:10:13.277Z,100677.47
2023-04-29T09:12:42.749Z,100693.81
2023-04-29T09:15:12.493Z,100695.94
2023-04-29T09:17:43.351Z,100706.31
2023-04-29T09:20:31.209Z,100700.28
2023-04-29T09:23:03.867Z,100713.34
2023-04-29T09:25:36.500Z,100697.31
2023-04-29T09:28:17.535Z,100691.31
2023-04-29T09:30:50.806Z,100695.81
2023-04-29T09:33:20.508Z,100685.38
2023-04-29T09:35:56.548Z,100691.53
2023-04-29T09:38:36.916Z,100686.94
2023-04-29T09:41:12.368Z,100679.22
2023-04-29T09:43:42.536Z,100704.59
2023-04-29T09:46:14.638Z,100693.00
2023-04-29T09:48:44.080Z,100692.06
2023-04-29T09:51:14.970Z,100696.22
2023-04-29T09:53:45.468Z,100649.91
2023-04-29T09:56:16.057Z,100665.81
2023-04-29T09:58:46.012Z,100680.00
2023-04-29T10:01:19.418Z,100679.66
2023-04-29T10:03:51.160Z,100668.59
2023-04-29T10:06:20.521Z,100672.81
2023-04-29T10:08:50.617Z,100668.84
2023-04-29T10:11:21.857Z,100620.44
2023-04-29T10:13:53.176Z,100672.84
2023-04-29T10:16:33.337Z,100660.16
2023-04-29T10:19:08.941Z,100620.25
2023-04-29T10:21:39.274Z,100660.16
2023-04-29T10:24:13.614Z,100641.75
2023-04-29T10:26:45.768Z,100666.09
2023-04-29T10:29:16.922Z,100651.66
2023-04-29T10:31:47.914Z,100650.34
2023-04-29T10:34:18.817Z,100642.78
2023-04-29T10:36:49.184Z,100662.16
2023-04-29T10:39:26.314Z,100632.22
2023-04-29T10:41:58.172Z,100630.16
2023-04-29T10:44:27.257Z,100636.44
2023-04-29T10:47:20.371Z,100624.84
2023-04-29T10:50:20.178Z,100642.78
2023-04-29T10:52:58.132Z,100636.28
2023-04-29T10:55:27.530Z,100648.22
2023-04-29T10:57:58.284Z,100641.59
2023-04-29T11:00:29.359Z,100637.34
2023-04-29T11:02:59.828Z,100632.56
2023-04-29T11:05:33.454Z,100632.34
2023-04-29T11:08:13.529Z,100634.72
2023-04-29T11:10:43.239Z,100617.03
2023-04-29T11:13:26.076Z,100619.38
2023-04-29T11:15:56.107Z,100624.38
2023-04-29T11:18:25.062Z,100616.75
2023-04-29T11:21:16.534Z,100624.28
2023-04-29T11:23:47.995Z,100587.13
2023-04-29T11:26:20.587Z,100606.19
2023-04-29T11:28:53.174Z,100611.91
2023-04-29T11:31:22.392Z,100617.47
2023-04-29T11:33:51.820Z,100606.72
2023-04-29T11:36:21.099Z,100609.28
2023-04-29T11:38:52.896Z,100605.91
2023-04-29T11:41:22.954Z,100536.66
2023-04-29T11:43:59.040Z,100593.31
2023-04-29T11:46:33.070Z,100586.72
2023-04-29T11:49:06.042Z,100593.78
2023-04-29T11:51:36.085Z,100603.41
2023-04-29T11:54:08.095Z,100601.16
2023-04-29T11:56:40.883Z,100601.66
2023-04-29T11:59:13.680Z,100588.75
2023-04-29T12:01:44.493Z,100572.78
2023-04-29T12:04:16.654Z,100575.56
2023-04-29T12:06:46.642Z,100577.78
2023-04-29T12:09:19.711Z,100567.66
2023-04-29T12:11:51.136Z,100542.84
2023-04-29T12:14:24.831Z,100567.34
2023-04-29T12:16:56.106Z,100566.31
2023-04-29T12:19:50.061Z,100567.63
2023-04-29T12:22:22.855Z,100554.72
2023-04-29T12:24:54.833Z,100570.47
2023-04-29T12:27:26.376Z,100569.72
2023-04-29T12:29:58.948Z,100569.72
2023-04-29T12:32:28.188Z,100553.94
2023-04-29T12:34:57.307Z,100558.19
2023-04-29T12:38:00.943Z,100553.69
2023-04-29T12:40:43.968Z,100546.09
2023-04-29T12:43:13.704Z,100551.88
2023-04-29T12:45:46.118Z,100544.19
2023-04-29T12:48:25.411Z,100541.66
2023-04-29T12:51:00.134Z,100546.16
2023-04-29T12:53:31.394Z,100524.13
2023-04-29T12:56:01.034Z,100525.50
2023-04-29T12:58:30.851Z,100530.28
2023-04-29T13:01:04.503Z,100478.94
2023-04-29T13:03:34.444Z,100510.59
2023-04-29T13:06:03.807Z,100499.84
2023-04-29T13:08:32.898Z,100509.06
2023-04-29T13:11:02.759Z,100508.34
2023-04-29T13:13:35.993Z,100510.22
2023-04-29T13:16:10.587Z,100501.75
2023-04-29T13:18:39.834Z,100507.16
2023-04-29T13:21:09.102Z,100507.47
2023-04-29T13:23:38.710Z,100507.31
2023-04-29T13:26:10.526Z,100517.69
2023-04-29T13:28:40.029Z,100504.38
2023-04-29T13:31:10.423Z,100505.00
2023-04-29T13:33:40.304Z,100511.44
2023-04-29T13:36:09.414Z,100504.06
2023-04-29T13:38:38.850Z,100502.38
2023-04-29T13:41:11.017Z,100515.03
2023-04-29T13:43:44.069Z,100515.63
2023-04-29T13:46:15.235Z,100516.06
2023-04-29T13:49:17.405Z,100514.84
2023-04-29T13:52:16.959Z,100515.22
2023-04-29T13:57:40.172Z,100503.91
2023-04-29T13:59:50.661Z,100509.31
2023-04-29T14:02:28.416Z,100503.13
2023-04-29T14:04:58.176Z,100475.00
2023-04-29T14:07:28.228Z,100500.31
2023-04-29T14:09:57.219Z,100503.91
2023-04-29T14:12:26.471Z,100492.25
2023-04-29T14:14:56.221Z,100500.28
2023-04-29T14:17:27.842Z,100490.41
2023-04-29T14:19:56.859Z,100494.38
2023-04-29T14:22:27.653Z,100466.50
2023-04-29T14:24:56.817Z,100475.31
2023-04-29T14:27:25.973Z,100487.00
2023-04-29T14:29:55.011Z,100481.47
2023-04-29T14:32:24.209Z,100468.44
2023-04-29T14:34:54.805Z,100470.97
2023-04-29T14:37:23.996Z,100470.56
2023-04-29T14:39:53.083Z,100494.53
2023-04-29T14:42:22.298Z,100482.88
2023-04-29T14:44:52.419Z,100483.72
2023-04-29T14:47:22.037Z,100485.53
2023-04-29T14:49:51.546Z,100490.38
2023-04-29T14:52:21.949Z,100479.50
2023-04-29T14:54:51.546Z,100479.59
2023-04-29T14:57:21.420Z,100478.44
2023-04-29T14:59:51.134Z,100458.84
2023-04-29T15:02:20.164Z,100475.00
2023-04-29T15:04:49.633Z,100485.16
2023-04-29T15:07:19.206Z,100458.03
2023-04-29T15:09:50.619Z,100482.22
2023-04-29T15:12:21.222Z,100471.88
2023-04-29T15:14:50.783Z,100459.03
2023-04-29T15:17:19.932Z,100459.56
2023-04-29T15:19:49.867Z,100448.34
2023-04-29T15:22:19.187Z,100467.38
2023-04-29T15:24:49.943Z,100458.13
2023-04-29T15:27:19.244Z,100448.34
2023-04-29T15:29:48.587Z,100453.91
2023-04-29T15:32:17.962Z,100436.28
2023-04-29T15:34:47.082Z,100416.97
2023-04-29T15:37:16.304Z,100457.69
2023-04-29T15:39:45.309Z,100466.13
2023-04-29T15:42:15.943Z,100465.09
2023-04-29T15:44:44.874Z,100427.78
2023-04-29T15:47:14.077Z,100469.88
2023-04-29T15:49:43.712Z,100466.78
2023-04-29T15:52:12.827Z,100427.31
2023-04-29T15:54:42.302Z,100481.88
2023-04-29T15:57:11.857Z,100469.22
2023-04-29T15:59:42.234Z,100478.22
2023-04-29T16:02:11.993Z,100483.50
2023-04-29T16:04:41.510Z,100467.56
2023-04-29T16:07:11.474Z,100479.19
2023-04-29T16:09:40.631Z,100440.31
2023-04-29T16:12:11.687Z,100477.88
2023-04-29T16:14:42.239Z,100474.63
2023-04-29T16:17:12.565Z,100479.34
2023-04-29T16:19:41.517Z,100483.53
2023-04-29T16:22:10.757Z,100474.13
2023-04-29T16:24:42.724Z,100482.97
2023-04-29T16:27:15.230Z,100467.41
2023-04-29T16:29:45.614Z,100448.22
2023-04-29T16:32:14.919Z,100482.06
2023-04-29T16:34:44.068Z,100424.03
2023-04-29T16:37:13.774Z,100464.44
2023-04-29T16:40:25.605Z,100485.91
2023-04-29T16:42:56.919Z,100431.16
2023-04-29T16:45:27.830Z,100473.25
2023-04-29T16:47:57.507Z,100386.75
2023-04-29T16:50:27.096Z,100437.31
2023-04-29T16:52:56.072Z,100480.38
2023-04-29T16:55:25.755Z,100478.41
2023-04-29T16:57:54.831Z,100464.28
2023-04-29T17:00:24.458Z,100472.97
2023-04-29T17:02:58.541Z,100467.34
2023-04-29T17:05:28.082Z,100473.63
2023-04-29T17:07:57.267Z,100470.47
2023-04-29T17:10:26.468Z,100474.69
2023-04-29T17:13:03.355Z,100469.22
2023-04-29T17:15:52.980Z,100483.19
2023-04-29T17:18:23.702Z,100460.22
2023-04-29T17:20:53.163Z,100480.28
2023-04-29T17:23:22.622Z,100441.03
2023-04-29T17:25:51.868Z,100486.06
2023-04-29T17:28:21.426Z,100479.25
2023-04-29T17:30:51.446Z,100461.66
2023-04-29T17:33:20.727Z,100466.75
2023-04-29T17:35:51.325Z,100454.91
2023-04-29T17:38:20.823Z,100492.47
2023-04-29T17:40:53.299Z,100472.81
2023-04-29T17:43:26.665Z,100493.53
2023-04-29T17:45:55.819Z,100494.97
2023-04-29T17:48:25.514Z,100503.69
2023-04-29T17:50:56.418Z,100485.16
2023-04-29T17:53:26.347Z,100499.91
2023-04-29T17:55:56.017Z,100495.84
2023-04-29T17:58:27.878Z,100494.97
2023-04-29T18:00:59.609Z,100491.72
2023-04-29T18:03:34.826Z,100426.44
2023-04-29T18:06:09.012Z,100498.84
2023-04-29T18:08:38.931Z,100489.28
2023-04-29T18:11:09.261Z,100472.00
2023-04-29T18:13:41.159Z,100486.66
2023-04-29T18:16:13.060Z,100480.34
2023-04-29T18:18:43.377Z,100492.81
2023-04-29T18:21:14.257Z,100496.91
2023-04-29T18:23:45.889Z,100497.56
2023-04-29T18:26:15.405Z,100494.69
2023-04-29T18:28:46.414Z,100464.22
2023-04-29T18:31:17.061Z,100498.69
2023-04-29T18:33:46.605Z,100498.25
2023-04-29T18:36:17.690Z,100500.47
2023-04-29T18:38:47.154Z,100466.41
2023-04-29T18:41:25.120Z,100464.06
2023-04-29T18:43:55.263Z,100372.00
2023-04-29T18:46:25.274Z,100492.91
2023-04-29T18:48:54.532Z,100479.09
2023-04-29T18:51:25.664Z,100480.28
2023-04-29T18:53:58.811Z,100485.28
2023-04-29T18:56:33.433Z,100488.09
2023-04-29T18:59:04.536Z,100471.06
2023-04-29T19:01:39.596Z,100353.00
2023-04-29T19:04:12.022Z,100474.38
2023-04-29T19:06:50.955Z,100379.94
2023-04-29T19:09:21.164Z,100479.56
2023-04-29T19:11:51.019Z,100474.84
2023-04-29T19:14:20.919Z,100460.25
2023-04-29T19:16:50.700Z,100460.50
2023-04-29T19:19:20.718Z,100340.59
2023-04-29T19:21:53.909Z,100467.28
2023-04-29T19:24:23.639Z,100460.97
2023-04-29T19:26:56.792Z,100463.13
2023-04-29T19:29:26.921Z,100454.88
2023-04-29T19:32:00.817Z,100419.41
2023-04-29T19:34:33.631Z,100451.34
2023-04-29T19:37:06.621Z,100451.50
2023-04-29T19:39:36.193Z,100451.16
2023-04-29T19:42:05.746Z,100449.06
2023-04-29T19:44:35.665Z,100439.34
2023-04-29T19:47:05.151Z,100425.13
2023-04-29T19:49:34.648Z,100448.53
2023-04-29T19:52:06.908Z,100445.13
2023-04-29T19:54:37.086Z,100433.25
2023-04-29T19:57:06.518Z,100408.47
2023-04-29T19:59:36.016Z,100443.81
2023-04-29T20:02:05.760Z,100425.69
2023-04-29T20:04:46.255Z,100428.84
2023-04-29T20:07:16.941Z,100435.88
2023-04-29T20:09:46.272Z,100432.72
2023-04-29T20:12:15.342Z,100431.75
2023-04-29T20:14:44.991Z,100421.81
2023-04-29T20:17:17.571Z,100379.31
2023-04-29T20:19:49.429Z,100280.97
2023-04-29T20:22:20.011Z,100328.81
2023-04-29T20:24:49.821Z,100365.34
2023-04-29T20:27:19.405Z,100405.91
2023-04-29T20:29:48.623Z,100425.13
2023-04-29T20:32:18.491Z,100424.38
2023-04-29T20:34:47.830Z,100439.75
2023-04-29T20:37:17.729Z,100425.19
2023-04-29T20:39:51.689Z,100429.69
2023-04-29T20:42:20.922Z,100404.19
2023-04-29T20:44:49.845Z,100426.75
2023-04-29T20:47:23.006Z,100424.38
2023-04-29T20:49:52.549Z,100408.19
2023-04-29T20:52:21.995Z,100422.03
2023-04-29T20:54:53.047Z,100390.56
2023-04-29T20:57:22.147Z,100402.94
2023-04-29T20:59:53.437Z,100403.34
2023-04-29T21:02:22.776Z,100394.53
2023-04-29T21:04:51.914Z,100412.75
2023-04-29T21:07:21.251Z,100408.44
2023-04-29T21:09:50.689Z,100388.19
2023-04-29T21:12:21.572Z,100384.00
2023-04-29T21:14:50.783Z,100410.66
2023-04-29T21:17:20.014Z,100360.13
2023-04-29T21:19:49.653Z,100402.97
2023-04-29T21:22:18.830Z,100392.09
2023-04-29T21:24:48.333Z,100405.09
2023-04-29T21:27:18.252Z,100408.34
2023-04-29T21:29:51.303Z,100411.28
2023-04-29T21:32:22.195Z,100400.16
2023-04-29T21:34:51.566Z,100407.16
2023-04-29T21:37:20.962Z,100421.16
2023-04-29T21:39:50.843Z,100417.16
2023-04-29T21:42:23.261Z,100410.63
2023-04-29T21:44:53.979Z,100370.06
2023-04-29T21:47:23.181Z,100398.19
2023-04-29T21:49:54.419Z,100402.03
2023-04-29T21:52:24.003Z,100413.19
2023-04-29T21:54:53.306Z,100420.56
2023-04-29T21:57:29.220Z,100403.47
2023-04-29T22:00:28.765Z,100413.88
2023-04-29T22:02:58.282Z,100415.09
2023-04-29T22:05:27.496Z,100412.06
2023-04-29T22:07:58.609Z,100414.78
2023-04-29T22:10:28.254Z,100388.03
2023-04-29T22:13:00.517Z,100416.31
2023-04-29T22:15:31.156Z,100401.69
2023-04-29T22:18:00.232Z,100411.00
2023-04-29T22:20:29.564Z,100371.22
2023-04-29T22:22:59.659Z,100408.78
2023-04-29T22:25:28.789Z,100402.41
2023-04-29T22:27:58.047Z,100393.47
2023-04-29T22:30:27.375Z,100385.56
2023-04-29T22:32:57.918Z,100423.88
2023-04-29T22:35:27.187Z,100424.19
2023-04-29T22:37:56.303Z,100399.28
2023-04-29T22:40:25.501Z,100413.13
2023-04-29T22:42:54.527Z,100402.28
2023-04-29T22:45:23.761Z,100419.16
2023-04-29T22:47:53.506Z,100407.25
2023-04-29T22:50:24.236Z,100418.19
2023-04-29T22:52:53.605Z,100415.22
2023-04-29T22:55:22.839Z,100387.31
2023-04-29T22:57:52.414Z,100405.16
2023-04-29T23:00:22.416Z,100400.50
2023-04-29T23:02:51.768Z,100402.66
2023-04-29T23:05:21.128Z,100362.56
2023-04-29T23:07:51.689Z,100388.31
2023-04-29T23:10:20.807Z,100397.75
2023-04-29T23:12:49.974Z,100413.81
2023-04-29T23:15:22.939Z,100394.75
2023-04-29T23:17:52.265Z,100416.25
2023-04-29T23:20:21.298Z,100409.16
2023-04-29T23:22:51.824Z,100379.28
2023-04-29T23:25:21.321Z,100414.16
2023-04-29T23:27:50.531Z,100395.00
2023-04-29T23:30:22.605Z,100411.84
2023-04-29T23:32:52.192Z,100419.91
2023-04-29T23:35:21.721Z,100413.13
2023-04-29T23:37:58.126Z,100398.69
2023-04-29T23:40:27.562Z,100403.13
2023-04-29T23:42:57.034Z,100414.28
2023-04-29T23:45:26.501Z,100422.06
2023-04-29T23:47:55.660Z,100422.28
2023-04-29T23:50:24.795Z,100419.09
2023-04-29T23:52:55.450Z,100412.94
2023-04-29T23:55:24.731Z,100408.69
2023-04-29T23:57:54.001Z,100418.06
